Time;durP1;ratioP1;P1;durP2;ratioP2;P2;SDS_P1;SDS_P2;PMS_P1;PMS_P2;Temp;Humidity;BMP_temperature;BMP_pressure;BME280_temperature;BME280_humidity;BME280_pressure;Samples;Min_cycle;Max_cycle;Signal;HPM_P1;HPM_P2
2023/05/21 00:01:33;;;;;;;1999.90;999.90;;;14.60;99.90;;;;;;5051959;28;20032;-73
2023/05/21 00:03:59;;;;;;;1999.90;999.90;;;14.60;99.90;;;;;;5053114;28;20092;-73
2023/05/21 00:06:25;;;;;;;1999.90;999.90;;;14.60;99.90;;;;;;5034898;28;20032;-78
2023/05/21 00:08:50;;;;;;;1999.90;999.90;;;14.60;99.90;;;;;;5061342;28;20024;-73
2023/05/21 00:11:16;;;;;;;1999.90;999.90;;;14.60;99.90;;;;;;5073039;28;20471;-79
2023/05/21 00:13:42;;;;;;;1999.90;999.90;;;14.60;99.90;;;;;;5074623;28;20032;-79
2023/05/21 00:16:09;;;;;;;1999.90;999.90;;;14.60;99.90;;;;;;5079725;28;20021;-79
2023/05/21 00:18:38;;;;;;;1999.90;999.90;;;14.60;99.90;;;;;;5079394;28;20017;-73
2023/05/21 00:21:04;;;;;;;1999.90;999.90;;;14.50;99.90;;;;;;5079663;28;20013;-73
2023/05/21 00:23:31;;;;;;;1999.90;999.90;;;14.50;99.90;;;;;;5079344;28;20038;-79
2023/05/21 00:25:58;;;;;;;1999.90;999.90;;;14.50;99.90;;;;;;5079064;28;20021;-79
2023/05/21 00:28:24;;;;;;;1999.90;999.90;;;14.50;99.90;;;;;;5079728;28;20074;-73
2023/05/21 00:30:49;;;;;;;1999.90;999.90;;;14.50;99.90;;;;;;5079604;28;20020;-78
2023/05/21 00:33:15;;;;;;;1999.90;999.90;;;14.50;99.90;;;;;;5079566;28;20446;-73
2023/05/21 00:35:40;;;;;;;1999.90;999.90;;;14.40;99.90;;;;;;5079536;28;20471;-73
2023/05/21 00:38:07;;;;;;;1999.90;999.90;;;14.30;99.90;;;;;;5079322;28;20021;-79
2023/05/21 00:40:34;;;;;;;1999.90;999.90;;;14.30;99.90;;;;;;5079342;28;20020;-79
2023/05/21 00:43:00;;;;;;;1999.90;999.90;;;14.20;99.90;;;;;;5079205;28;20531;-79
2023/05/21 00:45:26;;;;;;;1999.90;999.90;;;14.20;99.90;;;;;;5079265;28;20027;-73
2023/05/21 00:47:55;;;;;;;1999.90;999.90;;;14.10;99.90;;;;;;5079288;28;20115;-73
2023/05/21 00:50:22;;;;;;;1999.90;999.90;;;14.10;99.90;;;;;;5079102;28;20028;-78
2023/05/21 00:52:48;;;;;;;1999.90;999.90;;;14.10;99.90;;;;;;5079508;28;20432;-78
2023/05/21 00:55:14;;;;;;;1999.90;999.90;;;14.00;99.90;;;;;;5079291;28;20051;-79
2023/05/21 00:57:40;;;;;;;1999.90;999.90;;;13.90;99.90;;;;;;5079357;28;20052;-79
2023/05/21 01:00:07;;;;;;;1999.90;999.90;;;14.00;99.90;;;;;;5061133;28;20044;-73
2023/05/21 01:02:35;;;;;;;1999.90;999.90;;;14.00;99.90;;;;;;5062957;28;20451;-79
2023/05/21 01:05:04;;;;;;;1999.90;999.90;;;14.00;99.90;;;;;;5058353;28;20040;-79
2023/05/21 01:07:33;;;;;;;1999.90;999.90;;;14.00;99.90;;;;;;5058838;28;20095;-78
2023/05/21 01:10:00;;;;;;;1999.90;999.90;;;14.00;99.90;;;;;;5076690;28;20021;-73
2023/05/21 01:12:27;;;;;;;1999.90;999.90;;;14.00;99.90;;;;;;5078995;28;20032;-73
2023/05/21 01:14:53;;;;;;;1999.90;999.90;;;13.90;99.90;;;;;;5079307;28;20016;-73
2023/05/21 01:17:22;;;;;;;1999.90;999.90;;;13.90;99.90;;;;;;5078828;28;20078;-79
2023/05/21 01:19:51;;;;;;;1999.90;999.90;;;13.90;99.90;;;;;;5078874;28;20111;-73
2023/05/21 01:22:19;;;;;;;1999.90;999.90;;;13.80;99.90;;;;;;5079287;28;20511;-73
2023/05/21 01:24:46;;;;;;;1999.90;999.90;;;13.80;99.90;;;;;;5059209;28;20055;-73
2023/05/21 01:27:12;;;;;;;1999.90;999.90;;;13.70;99.90;;;;;;5074912;28;20486;-73
2023/05/21 01:29:37;;;;;;;1999.90;999.90;;;13.70;99.90;;;;;;5075715;28;20033;-79
2023/05/21 01:32:17;;;;;;;1999.90;999.90;;;13.70;99.90;;;;;;5075825;28;20028;-79
2023/05/21 01:34:52;;;;;;;1999.90;999.90;;;13.70;99.90;;;;;;5075545;28;20409;-79
2023/05/21 01:37:47;;;;;;;1999.90;999.90;;;13.60;99.90;;;;;;5075523;28;20502;-73
2023/05/21 01:40:24;;;;;;;1999.90;999.90;;;13.70;99.90;;;;;;5003677;28;20513;-73
2023/05/21 01:42:51;;;;;;;1999.90;999.90;;;13.70;99.90;;;;;;5075882;28;20028;-73
2023/05/21 01:45:17;;;;;;;1999.90;999.90;;;13.70;99.90;;;;;;5075105;28;20028;-73
2023/05/21 01:47:47;;;;;;;1999.90;999.90;;;13.70;99.90;;;;;;5075309;28;20021;-78
2023/05/21 01:50:14;;;;;;;1999.90;999.90;;;13.70;99.90;;;;;;5075420;28;20070;-73
2023/05/21 01:52:48;;;;;;;1999.90;999.90;;;13.70;99.90;;;;;;5075511;28;20041;-73
2023/05/21 01:55:14;;;;;;;1999.90;999.90;;;13.70;99.90;;;;;;5075476;28;20131;-79
2023/05/21 01:57:40;;;;;;;1999.90;999.90;;;13.70;99.90;;;;;;5075312;28;20013;-73
2023/05/21 02:00:07;;;;;;;1999.90;999.90;;;13.70;99.90;;;;;;5074804;28;20024;-73
2023/05/21 02:02:32;;;;;;;1999.90;999.90;;;13.70;99.90;;;;;;5059353;28;20032;-79
2023/05/21 02:04:59;;;;;;;1999.90;999.90;;;13.70;99.90;;;;;;5055113;28;20033;-73
2023/05/21 02:07:27;;;;;;;1999.90;999.90;;;13.70;99.90;;;;;;5054971;28;20504;-73
2023/05/21 02:09:53;;;;;;;1999.90;999.90;;;13.60;99.90;;;;;;5072202;28;20028;-78
2023/05/21 02:12:19;;;;;;;1999.90;999.90;;;13.70;99.90;;;;;;5074406;28;20091;-78
2023/05/21 02:14:49;;;;;;;1999.90;999.90;;;13.70;99.90;;;;;;5074834;28;20407;-73
2023/05/21 02:17:16;;;;;;;1999.90;999.90;;;13.70;99.90;;;;;;5074935;28;20021;-73
2023/05/21 02:19:43;;;;;;;1999.90;999.90;;;13.70;99.90;;;;;;5074696;28;20024;-73
2023/05/21 02:22:09;;;;;;;1999.90;999.90;;;13.60;99.90;;;;;;5074682;28;20025;-78
2023/05/21 02:24:35;;;;;;;1999.90;999.90;;;13.60;99.90;;;;;;5074741;28;20574;-79
2023/05/21 02:27:01;;;;;;;1999.90;999.90;;;13.70;99.90;;;;;;5074632;28;20132;-73
2023/05/21 02:29:27;;;;;;;1999.90;999.90;;;13.70;99.90;;;;;;5074817;28;20031;-73
2023/05/21 02:31:53;;;;;;;1999.90;999.90;;;13.70;99.90;;;;;;5074316;28;20491;-73
2023/05/21 02:34:19;;;;;;;1999.90;999.90;;;13.60;99.90;;;;;;5074861;28;20035;-78
2023/05/21 02:36:51;;;;;;;1999.90;999.90;;;13.60;99.90;;;;;;5073461;28;20153;-79
2023/05/21 02:39:17;;;;;;;1999.90;999.90;;;13.70;99.90;;;;;;5074287;28;20016;-78
2023/05/21 02:41:43;;;;;;;1999.90;999.90;;;13.70;99.90;;;;;;5074734;28;20108;-73
2023/05/21 02:44:09;;;;;;;1999.90;999.90;;;13.70;99.90;;;;;;5074305;28;20123;-73
2023/05/21 02:46:35;;;;;;;1999.90;999.90;;;13.70;99.90;;;;;;5074507;28;20060;-79
2023/05/21 02:49:00;;;;;;;1999.90;999.90;;;13.70;99.90;;;;;;5074453;28;20025;-78
2023/05/21 02:51:26;;;;;;;1999.90;999.90;;;13.70;99.90;;;;;;5074207;28;20033;-79
2023/05/21 02:53:51;;;;;;;1999.90;999.90;;;13.70;99.90;;;;;;5074399;28;20021;-78
2023/05/21 02:56:17;;;;;;;1999.90;999.90;;;13.70;99.90;;;;;;5073885;28;20384;-79
2023/05/21 02:58:43;;;;;;;1999.90;999.90;;;13.80;99.90;;;;;;5072714;28;20036;-73
2023/05/21 03:01:08;;;;;;;1999.90;999.90;;;13.80;99.90;;;;;;5069942;28;20030;-79
2023/05/21 03:03:34;;;;;;;1999.90;999.90;;;13.80;99.90;;;;;;5054015;28;20025;-78
2023/05/21 03:06:00;;;;;;;1999.90;999.90;;;13.70;99.90;;;;;;5053740;28;20107;-73
2023/05/21 03:08:25;;;;;;;1999.90;999.90;;;13.70;99.90;;;;;;5059551;28;20089;-73
2023/05/21 03:10:51;;;;;;;1999.90;999.90;;;13.80;99.90;;;;;;5073265;28;20458;-73
2023/05/21 03:13:17;;;;;;;1999.90;999.90;;;13.70;99.90;;;;;;5073631;28;20447;-79
2023/05/21 03:15:42;;;;;;;1999.90;999.90;;;13.70;99.90;;;;;;5073944;28;20021;-79
2023/05/21 03:18:09;;;;;;;1999.90;999.90;;;13.80;99.90;;;;;;5073290;28;20016;-79
2023/05/21 03:20:34;;;;;;;1999.90;999.90;;;13.70;99.90;;;;;;5073412;28;20025;-79
2023/05/21 03:23:03;;;;;;;1999.90;999.90;;;13.70;99.90;;;;;;5073535;28;20034;-73
2023/05/21 03:25:29;;;;;;;1999.90;999.90;;;13.80;99.90;;;;;;5073709;28;20056;-79
2023/05/21 03:27:55;;;;;;;1999.90;999.90;;;13.80;99.90;;;;;;5073865;28;20087;-73
2023/05/21 03:30:21;;;;;;;1999.90;999.90;;;13.70;99.90;;;;;;5073420;28;20060;-73
2023/05/21 03:32:48;;;;;;;1999.90;999.90;;;13.70;99.90;;;;;;5073327;28;20056;-79
2023/05/21 03:35:14;;;;;;;1999.90;999.90;;;13.70;99.90;;;;;;5073472;28;20021;-73
2023/05/21 03:37:39;;;;;;;1999.90;999.90;;;13.60;99.90;;;;;;5073520;28;20021;-73
2023/05/21 03:40:06;;;;;;;1999.90;999.90;;;13.70;99.90;;;;;;5055512;28;20024;-78
2023/05/21 03:42:32;;;;;;;1999.90;999.90;;;13.60;99.90;;;;;;5073078;28;20107;-79
2023/05/21 03:44:57;;;;;;;1999.90;999.90;;;13.60;99.90;;;;;;5073087;28;20062;-79
2023/05/21 03:47:23;;;;;;;1999.90;999.90;;;13.60;99.90;;;;;;5073248;28;20025;-73
2023/05/21 03:49:48;;;;;;;1999.90;999.90;;;13.60;99.90;;;;;;5072544;28;20424;-73
2023/05/21 03:52:14;;;;;;;1999.90;999.90;;;13.60;99.90;;;;;;5072868;28;20024;-78
2023/05/21 03:54:40;;;;;;;1999.90;999.90;;;13.60;99.90;;;;;;5055132;28;20561;-79
2023/05/21 03:57:05;;;;;;;1999.90;999.90;;;13.60;99.90;;;;;;5072814;28;20024;-79
2023/05/21 03:59:31;;;;;;;1999.90;999.90;;;13.60;99.90;;;;;;5072955;28;20025;-73
2023/05/21 04:01:56;;;;;;;1999.90;999.90;;;13.70;99.90;;;;;;5062354;28;20399;-79
2023/05/21 04:04:22;;;;;;;1999.90;999.90;;;13.70;99.90;;;;;;5053059;28;20021;-73
2023/05/21 04:06:49;;;;;;;1999.90;999.90;;;13.70;99.90;;;;;;5052953;28;20045;-79
2023/05/21 04:09:15;;;;;;;1999.90;999.90;;;13.70;99.90;;;;;;5065452;28;20025;-79
2023/05/21 04:11:40;;;;;;;1999.90;999.90;;;13.70;99.90;;;;;;5072505;28;20471;-79
2023/05/21 04:14:06;;;;;;;1999.90;999.90;;;13.60;99.90;;;;;;5072296;28;20100;-73
2023/05/21 04:16:34;;;;;;;1999.90;999.90;;;13.70;99.90;;;;;;5072812;28;20082;-73
2023/05/21 04:18:59;;;;;;;1999.90;999.90;;;13.60;99.90;;;;;;5072864;28;20017;-79
2023/05/21 04:21:25;;;;;;;1999.90;999.90;;;13.70;99.90;;;;;;5054246;28;20021;-73
2023/05/21 04:23:52;;;;;;;1999.90;999.90;;;13.70;99.90;;;;;;5054836;28;20032;-73
2023/05/21 04:26:18;;;;;;;1999.90;999.90;;;13.70;99.90;;;;;;5072852;28;20025;-73
2023/05/21 04:28:44;;;;;;;1999.90;999.90;;;13.70;99.90;;;;;;5073091;28;20040;-78
2023/05/21 04:31:11;;;;;;;1999.90;999.90;;;13.70;99.90;;;;;;5072613;28;20020;-79
2023/05/21 04:33:37;;;;;;;1999.90;999.90;;;13.60;99.90;;;;;;5072688;28;20020;-78
2023/05/21 04:36:03;;;;;;;1999.90;999.90;;;13.60;99.90;;;;;;5072707;28;20104;-78
2023/05/21 04:38:29;;;;;;;1999.90;999.90;;;13.60;99.90;;;;;;5072882;28;20032;-78
2023/05/21 04:40:55;;;;;;;1999.90;999.90;;;13.60;99.90;;;;;;5054611;28;20107;-73
2023/05/21 04:43:24;;;;;;;1999.90;999.90;;;13.60;99.90;;;;;;5072861;28;20020;-73
2023/05/21 04:45:50;;;;;;;1999.90;999.90;;;13.60;99.90;;;;;;5072356;28;20479;-73
2023/05/21 04:48:16;;;;;;;1999.90;999.90;;;13.60;99.90;;;;;;5072558;28;20056;-73
2023/05/21 04:50:42;;;;;;;1999.90;999.90;;;13.60;99.90;;;;;;5072693;28;20056;-79
2023/05/21 04:53:08;;;;;;;1999.90;999.90;;;13.60;99.90;;;;;;5072512;28;20037;-73
2023/05/21 04:55:38;;;;;;;1999.90;999.90;;;13.60;99.90;;;;;;5054646;28;20475;-73
2023/05/21 04:58:05;;;;;;;1999.90;999.90;;;13.60;99.90;;;;;;5072703;28;20479;-78
2023/05/21 05:00:32;;;;;;;1999.90;999.90;;;13.60;99.90;;;;;;5072674;28;20020;-79
2023/05/21 05:02:57;;;;;;;1999.90;999.90;;;13.60;99.90;;;;;;5075962;28;20024;-79
2023/05/21 05:05:23;;;;;;;1999.90;999.90;;;13.70;99.90;;;;;;5076577;28;20020;-73
2023/05/21 05:07:48;;;;;;;1999.90;999.90;;;13.70;99.90;;;;;;5075787;28;20056;-73
2023/05/21 05:10:14;;;;;;;1999.90;999.90;;;13.60;99.90;;;;;;5076039;28;20025;-79
2023/05/21 05:12:40;;;;;;;1999.90;999.90;;;13.60;99.90;;;;;;5075417;28;20058;-79
2023/05/21 05:15:06;;;;;;;1999.90;999.90;;;13.70;99.90;;;;;;5074846;28;20036;-79
2023/05/21 05:17:33;;;;;;;1999.90;999.90;;;13.70;99.90;;;;;;5076026;28;20063;-79
2023/05/21 05:19:58;;;;;;;1999.90;999.90;;;13.80;99.90;;;;;;5076160;28;20019;-79
2023/05/21 05:22:24;;;;;;;1999.90;999.90;;;13.80;99.90;;;;;;5076353;28;20028;-73
2023/05/21 05:24:50;;;;;;;1999.90;999.90;;;13.80;99.90;;;;;;5075937;28;20368;-79
2023/05/21 05:27:16;;;;;;;1999.90;999.90;;;13.80;99.90;;;;;;5075613;28;20036;-79
2023/05/21 05:29:43;;;;;;;1999.90;999.90;;;13.80;99.90;;;;;;5075968;28;20017;-79
2023/05/21 05:32:09;;;;;;;1999.90;999.90;;;13.80;99.90;;;;;;5075528;28;20064;-73
2023/05/21 05:34:34;;;;;;;1999.90;999.90;;;13.80;99.90;;;;;;5075860;28;20044;-73
2023/05/21 05:37:01;;;;;;;1999.90;999.90;;;13.80;99.90;;;;;;5075328;28;20490;-79
2023/05/21 05:39:27;;;;;;;1999.90;999.90;;;13.90;99.90;;;;;;5075823;28;20448;-79
2023/05/21 05:41:52;;;;;;;1999.90;999.90;;;13.90;99.90;;;;;;5075422;28;20055;-79
2023/05/21 05:44:18;;;;;;;1999.90;999.90;;;13.90;99.90;;;;;;5075513;28;20028;-79
2023/05/21 05:46:44;;;;;;;1999.90;999.90;;;13.80;99.90;;;;;;5075156;28;20082;-73
2023/05/21 05:49:09;;;;;;;1999.90;999.90;;;13.80;99.90;;;;;;5075492;28;20020;-79
2023/05/21 05:51:36;;;;;;;1999.90;999.90;;;13.80;99.90;;;;;;5075207;28;20032;-78
2023/05/21 05:54:01;;;;;;;1999.90;999.90;;;13.80;99.90;;;;;;5057744;28;20426;-79
2023/05/21 05:56:27;;;;;;;1999.90;999.90;;;13.80;99.90;;;;;;5075285;28;20033;-73
2023/05/21 05:58:52;;;;;;;1999.90;999.90;;;13.90;99.90;;;;;;5075229;28;20017;-73
2023/05/21 06:01:18;;;;;;;1999.90;999.90;;;13.90;99.90;;;;;;5069817;28;20056;-73
2023/05/21 06:03:44;;;;;;;1999.90;999.90;;;13.90;99.90;;;;;;5055542;28;20082;-79
2023/05/21 06:06:10;;;;;;;1999.90;999.90;;;13.90;99.90;;;;;;5055295;28;20032;-73
2023/05/21 06:08:36;;;;;;;1999.90;999.90;;;13.90;99.90;;;;;;5061998;28;20055;-79
2023/05/21 06:11:02;;;;;;;1999.90;999.90;;;14.00;99.90;;;;;;5074470;28;20067;-73
2023/05/21 06:13:27;;;;;;;1999.90;999.90;;;14.10;99.90;;;;;;5074652;28;20052;-79
2023/05/21 06:15:53;;;;;;;1999.90;999.90;;;14.10;99.90;;;;;;5074024;28;20083;-79
2023/05/21 06:18:19;;;;;;;1999.90;999.90;;;14.10;99.90;;;;;;5075426;28;20029;-79
2023/05/21 06:20:44;;;;;;;1999.90;999.90;;;14.30;99.90;;;;;;5074755;28;20557;-79
2023/05/21 06:23:10;;;;;;;1999.90;999.90;;;14.30;99.90;;;;;;5074847;28;20056;-73
2023/05/21 06:25:36;;;;;;;1999.90;999.90;;;14.30;99.90;;;;;;5074509;28;20058;-73
2023/05/21 06:28:02;;;;;;;1999.90;999.90;;;14.40;99.90;;;;;;5074898;28;20024;-79
2023/05/21 06:30:27;;;;;;;1999.90;999.90;;;14.50;99.90;;;;;;5073368;28;20082;-76
2023/05/21 06:32:53;;;;;;;1999.90;999.90;;;14.50;99.90;;;;;;5074587;28;20103;-79
2023/05/21 06:35:19;;;;;;;1999.90;999.90;;;14.60;99.90;;;;;;5075048;28;20036;-73
2023/05/21 06:37:45;;;;;;;1999.90;999.90;;;14.60;99.90;;;;;;5074369;28;20036;-73
2023/05/21 06:40:11;;;;;;;1999.90;999.90;;;14.70;99.90;;;;;;5074212;28;20522;-73
2023/05/21 06:42:36;;;;;;;1999.90;999.90;;;14.80;99.90;;;;;;5074498;28;20021;-79
2023/05/21 06:45:02;;;;;;;1999.90;999.90;;;14.80;99.90;;;;;;5056707;28;20139;-78
2023/05/21 06:47:28;;;;;;;1999.90;999.90;;;14.80;99.90;;;;;;5074238;28;20094;-79
2023/05/21 06:49:53;;;;;;;1999.90;999.90;;;14.70;99.90;;;;;;5074292;28;20047;-74
2023/05/21 06:52:19;;;;;;;1999.90;999.90;;;14.70;99.90;;;;;;5074081;28;20364;-79
2023/05/21 06:54:45;;;;;;;1999.90;999.90;;;14.80;99.90;;;;;;5074539;28;20056;-79
2023/05/21 06:57:10;;;;;;;1999.90;999.90;;;14.80;99.90;;;;;;5074469;28;20020;-79
2023/05/21 06:59:36;;;;;;;1999.90;999.90;;;15.00;99.90;;;;;;5074157;28;20031;-79
2023/05/21 07:02:02;;;;;;;1999.90;999.90;;;15.10;99.90;;;;;;5062819;28;20025;-73
2023/05/21 07:04:27;;;;;;;1999.90;999.90;;;15.30;99.90;;;;;;5054210;28;20055;-79
2023/05/21 07:06:53;;;;;;;1999.90;999.90;;;15.40;99.90;;;;;;5054052;28;20467;-73
2023/05/21 07:09:18;;;;;;;1999.90;999.90;;;15.30;99.90;;;;;;5066887;28;20437;-79
2023/05/21 07:11:44;;;;;;;1999.90;999.90;;;15.20;99.90;;;;;;5073791;28;20035;-79
2023/05/21 07:14:10;;;;;;;1999.90;999.90;;;15.20;99.90;;;;;;5074055;28;20060;-73
2023/05/21 07:16:35;;;;;;;1999.90;999.90;;;15.10;99.90;;;;;;5072571;28;20021;-73
2023/05/21 07:19:01;;;;;;;1999.90;999.90;;;15.30;99.90;;;;;;5073780;28;20032;-79
2023/05/21 07:21:27;;;;;;;1999.90;999.90;;;15.50;99.90;;;;;;5073844;28;20080;-79
2023/05/21 07:23:52;;;;;;;1999.90;999.90;;;15.60;99.90;;;;;;5072846;28;20058;-79
2023/05/21 07:26:18;;;;;;;1999.90;999.90;;;15.80;99.90;;;;;;5072506;28;20028;-80
2023/05/21 07:28:44;;;;;;;1999.90;999.90;;;16.10;99.90;;;;;;5055521;28;20070;-73
2023/05/21 07:31:11;;;;;;;1999.90;999.90;;;16.20;99.90;;;;;;5073686;28;20357;-73
2023/05/21 07:33:36;;;;;;;1999.90;999.90;;;16.10;99.90;;;;;;5073440;28;20032;-79
2023/05/21 07:36:02;;;;;;;1999.90;999.90;;;16.10;99.90;;;;;;5073374;28;20025;-79
2023/05/21 07:38:28;;;;;;;1999.90;999.90;;;16.30;99.90;;;;;;5073298;28;20025;-79
2023/05/21 07:40:54;;;;;;;1999.90;999.90;;;16.50;99.90;;;;;;5073362;28;20337;-73
2023/05/21 07:43:19;;;;;;;1999.90;999.90;;;16.60;99.90;;;;;;5073281;28;20086;-74
2023/05/21 07:45:45;;;;;;;1999.90;999.90;;;16.80;99.90;;;;;;5073373;28;20100;-79
2023/05/21 07:48:11;;;;;;;1999.90;999.90;;;17.00;99.90;;;;;;5072858;28;20059;-79
2023/05/21 07:50:36;;;;;;;1999.90;999.90;;;16.90;99.90;;;;;;5055165;28;20031;-79
2023/05/21 07:53:02;;;;;;;1999.90;999.90;;;17.30;99.90;;;;;;5072766;28;20510;-79
2023/05/21 07:55:28;;;;;;;1999.90;999.90;;;17.40;99.90;;;;;;5073316;28;20025;-79
2023/05/21 07:57:53;;;;;;;1999.90;999.90;;;17.50;99.90;;;;;;5072902;28;20033;-73
2023/05/21 08:00:22;;;;;;;1999.90;999.90;;;17.70;99.90;;;;;;5054899;28;20035;-79
2023/05/21 08:02:48;;;;;;;1999.90;999.90;;;17.90;99.90;;;;;;5072850;28;20052;-80
2023/05/21 08:05:15;;;;;;;1999.90;999.90;;;18.10;99.90;;;;;;5072877;28;20059;-74
2023/05/21 08:07:41;;;;;;;1999.90;999.90;;;18.80;99.90;;;;;;5072792;28;20567;-74
2023/05/21 08:10:07;;;;;;;1999.90;999.90;;;19.30;99.90;;;;;;5072698;28;20029;-79
2023/05/21 08:12:33;;;;;;;1999.90;999.90;;;19.60;99.90;;;;;;5072726;28;20024;-80
2023/05/21 08:14:59;;;;;;;1999.90;999.90;;;20.00;99.90;;;;;;5073289;28;20036;-79
2023/05/21 08:17:24;;;;;;;1999.90;999.90;;;20.60;99.90;;;;;;5071551;28;20021;-74
2023/05/21 08:19:50;;;;;;;1999.90;999.90;;;21.40;99.90;;;;;;5073267;28;20029;-74
2023/05/21 08:22:16;;;;;;;1999.90;999.90;;;21.40;99.90;;;;;;5073130;28;20491;-74
2023/05/21 08:24:42;;;;;;;1999.90;999.90;;;21.60;99.90;;;;;;5072502;28;20036;-80
2023/05/21 08:27:08;;;;;;;1999.90;999.90;;;22.80;99.90;;;;;;5073036;28;20032;-80
2023/05/21 08:29:34;;;;;;;1999.90;999.90;;;23.10;99.90;;;;;;5072836;28;20039;-79
2023/05/21 08:31:59;;;;;;;1999.90;999.90;;;23.00;99.90;;;;;;5072918;28;20051;-74
2023/05/21 08:34:25;;;;;;;1999.90;999.90;;;23.60;99.90;;;;;;5073820;28;20029;-74
2023/05/21 08:36:52;;;;;;;1999.90;999.90;;;23.60;99.90;;;;;;5076621;28;20020;-74
2023/05/21 08:39:18;;;;;;;1999.90;999.90;;;23.30;99.90;;;;;;5076796;28;20024;-80
2023/05/21 08:41:48;;;;;;;1999.90;999.90;;;23.50;99.90;;;;;;5075270;28;20028;-74
2023/05/21 08:44:14;;;;;;;1999.90;999.90;;;24.70;99.90;;;;;;5076597;28;20032;-80
2023/05/21 08:46:43;;;;;;;1999.90;999.90;;;26.90;99.90;;;;;;5075869;28;20110;-75
2023/05/21 08:49:12;;;;;;;1999.90;999.90;;;26.00;99.90;;;;;;5076582;28;20032;-74
2023/05/21 08:51:38;;;;;;;1999.90;999.90;;;25.50;99.90;;;;;;5076659;28;20359;-80
2023/05/21 08:54:05;;;;;;;1999.90;999.90;;;26.10;99.90;;;;;;5075822;28;20033;-80
2023/05/21 08:56:31;;;;;;;1999.90;999.90;;;26.30;99.90;;;;;;5076731;28;20039;-77
2023/05/21 08:58:58;;;;;;;1999.90;999.90;;;25.90;99.90;;;;;;5076330;28;20079;-75
2023/05/21 09:01:25;;;;;;;1999.90;999.90;;;25.10;99.90;;;;;;5070257;28;20032;-80
2023/05/21 09:03:52;;;;;;;1999.90;999.90;;;23.60;99.90;;;;;;5056105;28;20021;-80
2023/05/21 09:06:18;;;;;;;1999.90;999.90;;;22.60;99.90;;;;;;5055896;28;20021;-74
2023/05/21 09:08:48;;;;;;;1999.90;999.90;;;21.80;99.90;;;;;;5063835;28;20131;-74
2023/05/21 09:11:13;;;;;;;1999.90;999.90;;;21.70;99.90;;;;;;5076178;28;20012;-80
2023/05/21 09:13:40;;;;;;;1999.90;999.90;;;22.00;99.90;;;;;;5075835;28;20530;-74
2023/05/21 09:16:06;;;;;;;1999.90;999.90;;;22.10;99.90;;;;;;5075596;28;20028;-79
2023/05/21 09:18:31;;;;;;;1999.90;999.90;;;22.40;99.90;;;;;;5075198;28;20062;-74
2023/05/21 09:21:18;;;;;;;1999.90;999.90;;;23.40;99.90;;;;;;5075996;28;20483;-80
2023/05/21 09:23:44;;;;;;;1999.90;999.90;;;24.00;99.90;;;;;;5074235;28;20024;-80
2023/05/21 09:26:11;;;;;;;1999.90;999.90;;;23.10;99.90;;;;;;5075821;28;20039;-74
2023/05/21 09:28:37;;;;;;;1999.90;999.90;;;22.60;99.90;;;;;;5075922;28;20101;-75
2023/05/21 09:31:03;;;;;;;1999.90;999.90;;;23.00;99.90;;;;;;5075410;28;20067;-74
2023/05/21 09:33:28;;;;;;;1999.90;999.90;;;24.20;99.90;;;;;;5075493;28;20140;-80
2023/05/21 09:35:54;;;;;;;1999.90;999.90;;;25.80;99.90;;;;;;5075711;28;20028;-75
2023/05/21 09:38:24;;;;;;;1999.90;999.90;;;26.50;99.90;;;;;;5075541;28;20097;-74
2023/05/21 09:40:50;;;;;;;1999.90;999.90;;;26.30;99.90;;;;;;5074267;28;20066;-75
2023/05/21 09:43:16;;;;;;;1999.90;999.90;;;25.10;99.90;;;;;;5075326;28;20032;-80
2023/05/21 09:45:55;;;;;;;1999.90;999.90;;;24.30;99.90;;;;;;5074632;28;20028;-74
2023/05/21 09:48:39;;;;;;;1999.90;999.90;;;24.70;99.90;;;;;;5075367;28;20031;-80
2023/05/21 09:51:16;;;;;;;1999.90;999.90;;;26.10;99.90;;;;;;5075383;28;20066;-75
2023/05/21 09:53:56;;;;;;;1999.90;999.90;;;27.00;99.90;;;;;;5075273;28;20032;-80
2023/05/21 09:56:30;;;;;;;1999.90;999.90;;;26.30;99.90;;;;;;5075387;28;20013;-80
2023/05/21 09:58:59;;;;;;;1999.90;999.90;;;25.30;99.90;;;;;;5075062;28;20051;-81
2023/05/21 10:01:25;;;;;;;1999.90;999.90;;;25.70;99.90;;;;;;5069005;28;20354;-81
2023/05/21 10:03:55;;;;;;;1999.90;999.90;;;26.60;99.90;;;;;;5055145;28;20071;-80
2023/05/21 10:06:26;;;;;;;1999.90;999.90;;;27.30;99.90;;;;;;5054993;28;20045;-75
2023/05/21 10:08:57;;;;;;;1999.90;999.90;;;26.40;99.90;;;;;;5063870;28;20503;-80
2023/05/21 10:11:28;;;;;;;1999.90;999.90;;;24.80;99.90;;;;;;5074856;28;20035;-74
2023/05/21 10:13:59;;;;;;;1999.90;999.90;;;23.70;99.90;;;;;;5075052;28;20017;-74
2023/05/21 10:16:25;;;;;;;1999.90;999.90;;;23.00;99.90;;;;;;5074374;28;20024;-80
2023/05/21 10:18:53;;;;;;;1999.90;999.90;;;23.80;99.90;;;;;;5073369;28;20074;-80
2023/05/21 10:21:21;;;;;;;1999.90;999.90;;;25.00;99.90;;;;;;5074446;28;20499;-75
2023/05/21 10:23:48;;;;;;;1999.90;999.90;;;25.70;99.90;;;;;;5074627;28;20055;-74
2023/05/21 10:26:15;;;;;;;1999.90;999.90;;;25.10;99.90;;;;;;5074614;28;20445;-75
2023/05/21 10:28:41;;;;;;;1999.90;999.90;;;25.20;99.90;;;;;;5074779;28;20048;-75
2023/05/21 10:31:07;;;;;;;1999.90;999.90;;;25.40;99.90;;;;;;5074481;28;20099;-74
2023/05/21 10:33:34;;;;;;;1999.90;999.90;;;24.80;99.90;;;;;;5074186;28;20599;-75
2023/05/21 10:36:01;;;;;;;1999.90;999.90;;;23.90;99.90;;;;;;5074507;28;20411;-74
2023/05/21 10:38:27;;;;;;;1999.90;999.90;;;23.00;99.90;;;;;;5074985;28;20025;-80
2023/05/21 10:40:54;;;;;;;1999.90;999.90;;;23.30;99.90;;;;;;5074448;28;20075;-74
2023/05/21 10:43:29;;;;;;;1999.90;999.90;;;23.80;99.90;;;;;;5074441;28;20024;-75
2023/05/21 10:46:00;;;;;;;1999.90;999.90;;;24.80;99.90;;;;;;5073937;28;20033;-75
2023/05/21 10:49:01;;;;;;;1999.90;999.90;;;25.10;99.90;;;;;;5074206;28;20476;-80
2023/05/21 10:51:48;;;;;;;1999.90;999.90;;;24.90;99.90;;;;;;5074022;28;20502;-75
2023/05/21 10:54:37;;;;;;;1999.90;999.90;;;24.40;99.90;;;;;;5073489;28;20055;-80
2023/05/21 10:57:20;;;;;;;1999.90;999.90;;;24.20;99.90;;;;;;5073025;28;20090;-74
2023/05/21 10:59:46;;;;;;;1999.90;999.90;;;24.00;99.90;;;;;;5073390;28;20471;-74
2023/05/21 11:02:18;;;;;;;1999.90;999.90;;;24.00;99.90;;;;;;5061501;28;20036;-74
2023/05/21 11:04:44;;;;;;;1999.90;999.90;;;23.80;99.90;;;;;;5054232;28;20025;-81
2023/05/21 11:07:21;;;;;;;1999.90;999.90;;;23.90;99.90;;;;;;5053643;28;20538;-80
2023/05/21 11:09:49;;;;;;;1999.90;999.90;;;24.00;99.90;;;;;;5070428;28;20047;-80
2023/05/21 11:12:16;;;;;;;1999.90;999.90;;;24.60;99.90;;;;;;5073626;28;20035;-74
2023/05/21 11:14:55;;;;;;;1999.90;999.90;;;24.80;99.90;;;;;;5073940;28;20082;-81
2023/05/21 11:17:40;;;;;;;1999.90;999.90;;;24.40;99.90;;;;;;5073655;28;20095;-80
2023/05/21 11:20:13;;;;;;;1999.90;999.90;;;24.20;99.90;;;;;;5072464;28;20041;-80
2023/05/21 11:22:38;;;;;;;1999.90;999.90;;;24.00;99.90;;;;;;5073474;28;20388;-74
2023/05/21 11:25:05;;;;;;;1999.90;999.90;;;24.00;99.90;;;;;;5073259;28;20038;-80
2023/05/21 11:27:34;;;;;;;1999.90;999.90;;;24.90;99.90;;;;;;5055651;28;20024;-75
2023/05/21 11:30:07;;;;;;;1999.90;999.90;;;25.10;99.90;;;;;;5073462;28;20029;-81
2023/05/21 11:32:37;;;;;;;1999.90;999.90;;;26.70;99.90;;;;;;5073660;28;20502;-75
2023/05/21 11:35:03;;;;;;;1999.90;999.90;;;26.40;99.90;;;;;;5055186;28;20749;-75
2023/05/21 11:37:30;;;;;;;1999.90;999.90;;;26.30;99.90;;;;;;5073215;28;20078;-75
2023/05/21 11:40:14;;;;;;;1999.90;999.90;;;25.70;99.90;;;;;;5073092;28;20021;-80
2023/05/21 11:42:42;;;;;;;1999.90;999.90;;;25.20;99.90;;;;;;5073433;28;20553;-80
2023/05/21 11:45:08;;;;;;;1999.90;999.90;;;25.30;99.90;;;;;;5073294;28;20016;-80
2023/05/21 11:47:34;;;;;;;1999.90;999.90;;;24.50;99.90;;;;;;5073125;28;20545;-75
2023/05/21 11:50:03;;;;;;;1999.90;999.90;;;23.90;99.90;;;;;;5072915;28;20032;-74
2023/05/21 11:52:30;;;;;;;1999.90;999.90;;;24.60;99.90;;;;;;5073051;28;20029;-80
2023/05/21 11:54:56;;;;;;;1999.90;999.90;;;25.50;99.90;;;;;;5073242;28;20067;-81
2023/05/21 11:57:29;;;;;;;1999.90;999.90;;;25.10;99.90;;;;;;5073116;28;20410;-80
2023/05/21 11:59:57;;;;;;;1999.90;999.90;;;24.90;99.90;;;;;;5072856;28;20458;-80